Time;durP1;ratioP1;P1;durP2;ratioP2;P2;SDS_P1;SDS_P2;PMS_P1;PMS_P2;Temp;Humidity;BMP_temperature;BMP_pressure;BME280_temperature;BME280_humidity;BME280_pressure;Samples;Min_cycle;Max_cycle;Signal;HPM_P1;HPM_P2
2022/10/20 00:01:15;;;;;;;;;;;11.10;99.90;;;;;;5094760;28;20389;-64
2022/10/20 00:03:41;;;;;;;;;;;11.10;99.90;;;;;;5088523;28;19938;-64
2022/10/20 00:06:09;;;;;;;;;;;11.10;99.90;;;;;;5084522;28;19947;-64
2022/10/20 00:08:36;;;;;;;;;;;11.10;99.90;;;;;;5077811;28;20369;-64
2022/10/20 00:11:02;;;;;;;;;;;11.10;99.90;;;;;;5081500;28;20474;-65
2022/10/20 00:13:29;;;;;;;;;;;11.10;99.90;;;;;;5077403;28;20354;-65
2022/10/20 00:15:58;;;;;;;;;;;11.10;99.90;;;;;;5085535;28;19978;-65
2022/10/20 00:18:25;;;;;;;;;;;11.10;99.90;;;;;;5077562;28;19924;-65
2022/10/20 00:20:52;;;;;;;;;;;11.10;99.90;;;;;;5091998;28;19924;-65
2022/10/20 00:23:18;;;;;;;;;;;11.10;99.90;;;;;;5080403;28;20446;-65
2022/10/20 00:25:45;;;;;;;;;;;11.00;99.90;;;;;;5082403;28;19929;-65
2022/10/20 00:28:12;;;;;;;;;;;11.00;99.90;;;;;;5072531;28;20015;-65
2022/10/20 00:30:39;;;;;;;;;;;11.00;99.90;;;;;;5079340;28;20020;-66
2022/10/20 00:33:07;;;;;;;;;;;11.00;99.90;;;;;;5078307;28;19924;-65
2022/10/20 00:35:37;;;;;;;;;;;11.00;99.90;;;;;;5083866;28;20022;-65
2022/10/20 00:38:04;;;;;;;;;;;11.00;99.90;;;;;;5084034;28;19932;-65
2022/10/20 00:40:30;;;;;;;;;;;10.90;99.90;;;;;;5072041;28;19934;-65
2022/10/20 00:42:57;;;;;;;;;;;10.90;99.90;;;;;;5072360;28;19932;-65
2022/10/20 00:45:24;;;;;;;;;;;10.90;99.90;;;;;;5073030;28;19928;-66
2022/10/20 00:47:53;;;;;;;;;;;10.90;99.90;;;;;;5107108;27;20404;-65
2022/10/20 00:50:23;;;;;;;;;;;10.90;99.90;;;;;;5091382;28;20021;-65
2022/10/20 00:52:50;;;;;;;;;;;10.80;99.90;;;;;;5076996;28;19924;-65
2022/10/20 00:55:19;;;;;;;;;;;10.80;99.90;;;;;;5076980;28;19924;-65
2022/10/20 00:57:47;;;;;;;;;;;10.80;99.90;;;;;;5087274;28;19924;-66
2022/10/20 01:00:15;;;;;;;;;;;10.90;99.90;;;;;;5075997;28;19928;-65
2022/10/20 01:02:42;;;;;;;;;;;10.80;99.90;;;;;;5080315;28;20015;-65
2022/10/20 01:05:09;;;;;;;;;;;10.90;99.90;;;;;;5075457;28;19932;-65
2022/10/20 01:07:37;;;;;;;;;;;10.90;99.90;;;;;;5078822;28;19924;-65
2022/10/20 01:10:04;;;;;;;;;;;10.90;99.90;;;;;;5079825;28;19924;-65
2022/10/20 01:12:37;;;;;;;;;;;10.80;99.90;;;;;;5087141;28;19924;-65
2022/10/20 01:15:09;;;;;;;;;;;10.80;99.90;;;;;;5085069;28;19924;-65
2022/10/20 01:17:40;;;;;;;;;;;10.80;99.90;;;;;;5090231;28;19924;-65
2022/10/20 01:20:25;;;;;;;;;;;10.80;99.90;;;;;;5080751;28;19998;-65
2022/10/20 01:22:59;;;;;;;;;;;10.90;99.90;;;;;;5078804;28;19924;-65
2022/10/20 01:25:31;;;;;;;;;;;10.90;99.90;;;;;;5075884;28;20310;-65
2022/10/20 01:28:02;;;;;;;;;;;10.80;99.90;;;;;;5077513;28;19930;-65
2022/10/20 01:30:29;;;;;;;;;;;10.80;99.90;;;;;;5076002;28;19960;-64
2022/10/20 01:33:08;;;;;;;;;;;10.90;99.90;;;;;;5075590;28;19931;-65
2022/10/20 01:35:39;;;;;;;;;;;10.80;99.90;;;;;;5072616;28;19928;-65
2022/10/20 01:38:11;;;;;;;;;;;10.90;99.90;;;;;;5073876;28;19931;-65
2022/10/20 01:40:40;;;;;;;;;;;10.80;99.90;;;;;;5091097;28;19931;-65
2022/10/20 01:43:10;;;;;;;;;;;10.90;99.90;;;;;;5079702;28;19924;-65
2022/10/20 01:45:38;;;;;;;;;;;10.90;99.90;;;;;;5071772;28;19999;-65
2022/10/20 01:48:06;;;;;;;;;;;10.90;99.90;;;;;;5072622;28;20307;-64
2022/10/20 01:50:34;;;;;;;;;;;10.90;99.90;;;;;;5093022;28;19942;-65
2022/10/20 01:53:01;;;;;;;;;;;10.90;99.90;;;;;;5078788;28;20369;-65
2022/10/20 01:55:28;;;;;;;;;;;10.90;99.90;;;;;;5075923;28;19931;-65
2022/10/20 01:58:03;;;;;;;;;;;10.90;99.90;;;;;;5087411;28;19928;-65
2022/10/20 02:00:31;;;;;;;;;;;10.90;99.90;;;;;;5076191;28;19931;-65
2022/10/20 02:03:14;;;;;;;;;;;10.90;99.90;;;;;;5086979;28;20297;-65
2022/10/20 02:05:46;;;;;;;;;;;10.90;99.90;;;;;;5075272;28;19930;-65
2022/10/20 02:08:16;;;;;;;;;;;10.90;99.90;;;;;;5083024;28;19931;-65
2022/10/20 02:10:45;;;;;;;;;;;10.90;99.90;;;;;;5095518;28;19930;-65
2022/10/20 02:13:12;;;;;;;;;;;10.90;99.90;;;;;;5082358;28;19931;-65
2022/10/20 02:15:42;;;;;;;;;;;10.90;99.90;;;;;;5078468;28;19925;-65
2022/10/20 02:18:09;;;;;;;;;;;10.90;99.90;;;;;;5087243;28;19946;-65
2022/10/20 02:20:36;;;;;;;;;;;10.80;99.90;;;;;;5085897;28;19939;-65
2022/10/20 02:23:04;;;;;;;;;;;10.80;99.90;;;;;;5083443;28;19929;-65
2022/10/20 02:25:31;;;;;;;;;;;10.80;99.90;;;;;;5074754;28;19931;-65
2022/10/20 02:27:59;;;;;;;;;;;10.90;99.90;;;;;;5075177;28;19931;-66
2022/10/20 02:30:26;;;;;;;;;;;10.90;99.90;;;;;;5075231;28;19925;-65
2022/10/20 02:32:54;;;;;;;;;;;10.90;99.90;;;;;;5074381;28;19928;-65
2022/10/20 02:35:23;;;;;;;;;;;10.90;99.90;;;;;;5079703;28;19930;-65
2022/10/20 02:37:50;;;;;;;;;;;10.80;99.90;;;;;;5075303;28;19931;-65
2022/10/20 02:40:17;;;;;;;;;;;10.90;99.90;;;;;;5089819;28;19931;-65
2022/10/20 02:42:43;;;;;;;;;;;10.80;99.90;;;;;;5092177;28;19924;-65
2022/10/20 02:45:10;;;;;;;;;;;10.80;99.90;;;;;;5081996;28;19925;-65
2022/10/20 02:47:37;;;;;;;;;;;10.80;99.90;;;;;;5074835;28;19924;-65
2022/10/20 02:50:06;;;;;;;;;;;10.80;99.90;;;;;;5075198;28;20015;-65
2022/10/20 02:52:32;;;;;;;;;;;10.80;99.90;;;;;;5074744;28;19925;-65
2022/10/20 02:54:59;;;;;;;;;;;10.80;99.90;;;;;;5074511;28;19925;-65
2022/10/20 02:57:26;;;;;;;;;;;10.80;99.90;;;;;;5082206;28;19929;-65
2022/10/20 02:59:52;;;;;;;;;;;10.80;99.90;;;;;;5081230;28;20440;-65
2022/10/20 03:02:19;;;;;;;;;;;10.80;99.90;;;;;;5078866;28;19925;-65
2022/10/20 03:04:46;;;;;;;;;;;10.80;99.90;;;;;;5079759;28;19924;-66
2022/10/20 03:07:14;;;;;;;;;;;10.80;99.90;;;;;;5077853;28;19931;-65
2022/10/20 03:09:41;;;;;;;;;;;10.80;99.90;;;;;;5083495;28;20297;-65
2022/10/20 03:12:07;;;;;;;;;;;10.80;99.90;;;;;;5080371;28;20286;-65
2022/10/20 03:14:34;;;;;;;;;;;10.80;99.90;;;;;;5076352;28;20366;-65
2022/10/20 03:17:00;;;;;;;;;;;10.80;99.90;;;;;;5075705;28;19932;-65
2022/10/20 03:19:27;;;;;;;;;;;10.70;99.90;;;;;;5082179;28;19930;-65
2022/10/20 03:21:54;;;;;;;;;;;10.70;99.90;;;;;;5093606;28;19924;-65
2022/10/20 03:24:22;;;;;;;;;;;10.70;99.90;;;;;;5093776;28;19924;-65
2022/10/20 03:26:48;;;;;;;;;;;10.70;99.90;;;;;;5091718;28;19950;-65
2022/10/20 03:29:15;;;;;;;;;;;10.70;99.90;;;;;;5093858;28;20014;-65
2022/10/20 03:31:42;;;;;;;;;;;10.70;99.90;;;;;;5093905;28;20014;-65
2022/10/20 03:34:08;;;;;;;;;;;10.70;99.90;;;;;;5093571;28;20015;-65
2022/10/20 03:36:35;;;;;;;;;;;10.60;99.90;;;;;;5093533;28;20030;-65
2022/10/20 03:39:02;;;;;;;;;;;10.60;99.90;;;;;;5091716;28;20006;-65
2022/10/20 03:41:30;;;;;;;;;;;10.70;99.90;;;;;;5092848;28;20011;-65
2022/10/20 03:43:56;;;;;;;;;;;10.60;99.90;;;;;;5093319;28;19924;-65
2022/10/20 03:46:23;;;;;;;;;;;10.60;99.90;;;;;;5092991;28;19955;-65
2022/10/20 03:48:50;;;;;;;;;;;10.60;99.90;;;;;;5085257;28;20019;-65
2022/10/20 03:51:16;;;;;;;;;;;10.60;99.90;;;;;;5084727;28;19966;-65
2022/10/20 03:53:43;;;;;;;;;;;10.50;99.90;;;;;;5093362;28;20034;-65
2022/10/20 03:56:10;;;;;;;;;;;10.50;99.90;;;;;;5093037;28;20457;-65
2022/10/20 03:58:38;;;;;;;;;;;10.40;99.90;;;;;;5093443;28;19935;-65
2022/10/20 04:01:08;;;;;;;;;;;10.40;99.90;;;;;;5093011;28;20310;-65
2022/10/20 04:03:34;;;;;;;;;;;10.50;99.90;;;;;;5087442;28;19931;-65
2022/10/20 04:06:01;;;;;;;;;;;10.40;99.90;;;;;;5091739;28;19924;-65
2022/10/20 04:08:28;;;;;;;;;;;10.50;99.90;;;;;;5092740;28;20446;-65
2022/10/20 04:10:54;;;;;;;;;;;10.40;99.90;;;;;;5090716;28;19928;-65
2022/10/20 04:13:21;;;;;;;;;;;10.40;99.90;;;;;;5092218;28;19951;-65
2022/10/20 04:15:49;;;;;;;;;;;10.40;99.90;;;;;;5091064;28;19924;-65
2022/10/20 04:18:15;;;;;;;;;;;10.40;99.90;;;;;;5082778;28;19925;-66
2022/10/20 04:20:42;;;;;;;;;;;10.40;99.90;;;;;;5075229;28;19924;-65
2022/10/20 04:23:09;;;;;;;;;;;10.40;99.90;;;;;;5075368;28;20018;-65
2022/10/20 04:25:38;;;;;;;;;;;10.30;99.90;;;;;;5083456;28;19977;-64
2022/10/20 04:28:05;;;;;;;;;;;10.30;99.90;;;;;;5091646;28;19970;-65
2022/10/20 04:30:32;;;;;;;;;;;10.30;99.90;;;;;;5089499;28;19932;-66
2022/10/20 04:33:00;;;;;;;;;;;10.20;99.90;;;;;;5084066;28;20015;-65
2022/10/20 04:35:26;;;;;;;;;;;10.30;99.90;;;;;;5084817;28;19930;-65
2022/10/20 04:37:54;;;;;;;;;;;10.30;99.90;;;;;;5072608;28;20343;-65
2022/10/20 04:40:20;;;;;;;;;;;10.20;99.90;;;;;;5086111;28;19930;-65
2022/10/20 04:42:48;;;;;;;;;;;10.20;99.90;;;;;;5086517;28;20287;-66
2022/10/20 04:45:15;;;;;;;;;;;10.20;99.90;;;;;;5091978;28;20007;-65
2022/10/20 04:47:41;;;;;;;;;;;10.20;99.90;;;;;;5092194;28;20023;-65
2022/10/20 04:50:10;;;;;;;;;;;10.20;99.90;;;;;;5091694;28;20309;-65
2022/10/20 04:52:36;;;;;;;;;;;10.20;99.90;;;;;;5085006;28;19933;-64
2022/10/20 04:55:03;;;;;;;;;;;10.20;99.90;;;;;;5081320;28;19946;-65
2022/10/20 04:57:30;;;;;;;;;;;10.10;99.90;;;;;;5091942;28;19970;-65
2022/10/20 04:59:56;;;;;;;;;;;10.10;99.90;;;;;;5092374;28;20015;-65
2022/10/20 05:02:23;;;;;;;;;;;10.10;99.90;;;;;;5077415;28;19924;-65
2022/10/20 05:04:50;;;;;;;;;;;10.10;99.90;;;;;;5085487;28;20334;-65
2022/10/20 05:07:18;;;;;;;;;;;10.10;99.90;;;;;;5091992;28;19991;-65
2022/10/20 05:09:45;;;;;;;;;;;10.10;99.90;;;;;;5091272;28;20354;-66
2022/10/20 05:12:23;;;;;;;;;;;10.10;99.90;;;;;;5091305;28;19924;-66
2022/10/20 05:14:50;;;;;;;;;;;10.10;99.90;;;;;;5092397;28;19954;-65
2022/10/20 05:17:17;;;;;;;;;;;10.10;99.90;;;;;;5091757;28;19931;-63
2022/10/20 05:19:44;;;;;;;;;;;10.10;99.90;;;;;;5091199;28;19931;-64
2022/10/20 05:22:11;;;;;;;;;;;10.10;99.90;;;;;;5089340;28;19924;-64
2022/10/20 05:24:39;;;;;;;;;;;10.10;99.90;;;;;;5084248;28;19924;-64
2022/10/20 05:27:05;;;;;;;;;;;10.20;99.90;;;;;;5082641;28;19931;-64
2022/10/20 05:29:32;;;;;;;;;;;10.20;99.90;;;;;;5076145;28;19975;-61
2022/10/20 05:31:59;;;;;;;;;;;10.20;99.90;;;;;;5080438;28;19925;-64
2022/10/20 05:34:25;;;;;;;;;;;10.20;99.90;;;;;;5079307;28;20014;-64
2022/10/20 05:36:52;;;;;;;;;;;10.20;99.90;;;;;;5092541;28;19924;-64
2022/10/20 05:39:19;;;;;;;;;;;10.20;99.90;;;;;;5082207;28;19930;-64
2022/10/20 05:41:47;;;;;;;;;;;10.20;99.90;;;;;;5092607;28;19924;-64
2022/10/20 05:44:13;;;;;;;;;;;10.20;99.90;;;;;;5097758;28;19923;-64
2022/10/20 05:46:41;;;;;;;;;;;10.20;99.90;;;;;;5101464;28;20010;-64
2022/10/20 05:49:10;;;;;;;;;;;10.20;99.90;;;;;;5103762;28;19951;-65
2022/10/20 05:51:37;;;;;;;;;;;10.30;99.90;;;;;;5114966;28;19928;-65
2022/10/20 05:54:04;;;;;;;;;;;10.30;99.90;;;;;;5095706;28;19944;-65
2022/10/20 05:56:32;;;;;;;;;;;10.30;99.90;;;;;;5095791;28;19925;-65
2022/10/20 05:59:00;;;;;;;;;;;10.40;99.90;;;;;;5095605;28;19930;-66
2022/10/20 06:01:37;;;;;;;;;;;10.40;99.90;;;;;;5077714;28;19925;-68
2022/10/20 06:04:04;;;;;;;;;;;10.40;99.90;;;;;;5076531;28;19925;-65
2022/10/20 06:06:31;;;;;;;;;;;10.40;99.90;;;;;;5095274;28;19924;-65
2022/10/20 06:08:59;;;;;;;;;;;10.40;99.90;;;;;;5092043;28;19932;-65
2022/10/20 06:11:26;;;;;;;;;;;10.40;99.90;;;;;;5082632;28;20016;-65
2022/10/20 06:13:52;;;;;;;;;;;10.40;99.90;;;;;;5093533;28;19938;-65
2022/10/20 06:16:22;;;;;;;;;;;10.40;99.90;;;;;;5092804;28;20323;-64
2022/10/20 06:18:49;;;;;;;;;;;10.50;99.90;;;;;;5090986;28;20290;-66
2022/10/20 06:21:17;;;;;;;;;;;10.50;99.90;;;;;;5092162;28;21518;-64
2022/10/20 06:23:44;;;;;;;;;;;10.70;99.90;;;;;;5092769;28;20337;-64
2022/10/20 06:26:11;;;;;;;;;;;10.70;99.90;;;;;;5081002;28;19949;-63
2022/10/20 06:28:39;;;;;;;;;;;10.70;99.90;;;;;;5088841;28;19931;-64
2022/10/20 06:31:13;;;;;;;;;;;10.80;99.90;;;;;;5093096;28;19974;-65
2022/10/20 06:33:41;;;;;;;;;;;10.80;99.90;;;;;;5091930;28;20371;-64
2022/10/20 06:36:07;;;;;;;;;;;10.90;99.90;;;;;;5092178;28;20018;-64
2022/10/20 06:38:34;;;;;;;;;;;10.90;99.90;;;;;;5093397;28;20378;-64
2022/10/20 06:41:01;;;;;;;;;;;10.90;99.90;;;;;;5092054;28;19924;-65
2022/10/20 06:43:28;;;;;;;;;;;11.00;99.90;;;;;;5081087;28;19927;-66
2022/10/20 06:45:55;;;;;;;;;;;11.00;99.90;;;;;;5089805;28;19924;-65
2022/10/20 06:48:22;;;;;;;;;;;11.10;99.90;;;;;;5106620;28;19923;-64
2022/10/20 06:50:50;;;;;;;;;;;11.10;99.90;;;;;;5101146;28;19924;-65
2022/10/20 06:53:24;;;;;;;;;;;11.10;99.90;;;;;;5098659;28;20378;-69
2022/10/20 06:55:57;;;;;;;;;;;11.20;99.90;;;;;;5100014;28;20019;-64
2022/10/20 06:58:24;;;;;;;;;;;11.20;99.90;;;;;;5079061;28;19925;-65
2022/10/20 07:00:57;;;;;;;;;;;11.30;99.90;;;;;;5081879;28;19930;-67
2022/10/20 07:03:24;;;;;;;;;;;11.30;99.90;;;;;;5085491;28;19924;-65
2022/10/20 07:05:52;;;;;;;;;;;11.40;99.90;;;;;;5075936;28;19932;-65
2022/10/20 07:08:19;;;;;;;;;;;11.40;99.90;;;;;;5090040;28;19924;-66
2022/10/20 07:10:45;;;;;;;;;;;11.50;99.90;;;;;;5090183;28;19930;-65
2022/10/20 07:13:12;;;;;;;;;;;11.60;99.90;;;;;;5094142;28;19966;-66
2022/10/20 07:15:39;;;;;;;;;;;11.70;99.90;;;;;;5093023;28;19924;-66
2022/10/20 07:18:05;;;;;;;;;;;11.80;99.90;;;;;;5099447;28;20437;-64
2022/10/20 07:20:32;;;;;;;;;;;11.80;99.90;;;;;;5109121;28;20408;-65
2022/10/20 07:23:00;;;;;;;;;;;11.80;99.90;;;;;;5094768;28;20002;-66
2022/10/20 07:25:27;;;;;;;;;;;11.90;99.90;;;;;;5097109;28;19963;-65
2022/10/20 07:27:54;;;;;;;;;;;11.90;99.90;;;;;;5091679;28;20058;-65
2022/10/20 07:30:20;;;;;;;;;;;11.80;99.90;;;;;;5090797;28;19924;-65
2022/10/20 07:32:47;;;;;;;;;;;11.90;99.90;;;;;;5089115;28;20002;-65
2022/10/20 07:35:14;;;;;;;;;;;11.90;99.90;;;;;;5092147;28;19924;-65
2022/10/20 07:37:40;;;;;;;;;;;12.00;99.90;;;;;;5092761;28;19946;-65
2022/10/20 07:40:09;;;;;;;;;;;12.10;99.90;;;;;;5089873;28;20441;-64
2022/10/20 07:42:36;;;;;;;;;;;12.20;99.90;;;;;;5088928;28;20303;-63
2022/10/20 07:45:03;;;;;;;;;;;12.30;99.90;;;;;;5090452;28;20367;-65
2022/10/20 07:47:30;;;;;;;;;;;12.40;99.90;;;;;;5087510;28;19939;-64
2022/10/20 07:49:57;;;;;;;;;;;12.40;99.90;;;;;;5090715;28;19924;-64
2022/10/20 07:52:23;;;;;;;;;;;12.40;99.90;;;;;;5093016;28;19924;-64
2022/10/20 07:54:50;;;;;;;;;;;12.30;99.90;;;;;;5091668;28;19931;-65
2022/10/20 07:57:18;;;;;;;;;;;12.30;99.90;;;;;;5092584;28;20027;-65
2022/10/20 07:59:45;;;;;;;;;;;12.40;99.90;;;;;;5093001;28;19930;-65
2022/10/20 08:02:12;;;;;;;;;;;12.40;99.90;;;;;;5091669;28;20007;-65
2022/10/20 08:04:40;;;;;;;;;;;12.50;99.90;;;;;;5081065;28;20507;-66
2022/10/20 08:07:07;;;;;;;;;;;12.60;99.90;;;;;;5072506;28;20375;-65
2022/10/20 08:09:34;;;;;;;;;;;12.60;99.90;;;;;;5085368;28;19924;-65
2022/10/20 08:12:00;;;;;;;;;;;12.60;99.90;;;;;;5092567;28;20012;-65
2022/10/20 08:14:30;;;;;;;;;;;12.80;99.90;;;;;;5088752;28;19924;-66
2022/10/20 08:16:57;;;;;;;;;;;13.00;99.90;;;;;;5093007;28;19930;-65
2022/10/20 08:19:24;;;;;;;;;;;13.10;99.90;;;;;;5092848;28;19924;-65
2022/10/20 08:21:50;;;;;;;;;;;13.30;99.90;;;;;;5092778;28;19930;-66
2022/10/20 08:24:17;;;;;;;;;;;13.40;99.90;;;;;;5091159;28;20302;-66
2022/10/20 08:26:44;;;;;;;;;;;13.40;99.90;;;;;;5091009;28;20303;-65
2022/10/20 08:29:11;;;;;;;;;;;13.60;99.90;;;;;;5089107;28;19963;-65
2022/10/20 08:31:39;;;;;;;;;;;13.80;99.90;;;;;;5071873;28;20290;-65
2022/10/20 08:34:06;;;;;;;;;;;14.00;99.90;;;;;;5086960;28;19924;-65
2022/10/20 08:36:33;;;;;;;;;;;14.20;99.90;;;;;;5072141;28;19924;-65
2022/10/20 08:39:00;;;;;;;;;;;14.30;99.90;;;;;;5092339;28;19934;-65
2022/10/20 08:41:28;;;;;;;;;;;14.40;99.90;;;;;;5092125;28;19928;-66
2022/10/20 08:43:55;;;;;;;;;;;14.40;99.90;;;;;;5088568;28;19924;-65
2022/10/20 08:46:24;;;;;;;;;;;14.40;99.90;;;;;;5091940;28;19935;-65
2022/10/20 08:48:52;;;;;;;;;;;14.40;99.90;;;;;;5090528;28;20386;-65
2022/10/20 08:51:20;;;;;;;;;;;14.40;99.90;;;;;;5091843;28;19930;-66
2022/10/20 08:53:48;;;;;;;;;;;14.50;99.90;;;;;;5092017;28;20382;-65
2022/10/20 08:56:15;;;;;;;;;;;14.50;99.90;;;;;;5087476;28;20178;-65
2022/10/20 08:58:43;;;;;;;;;;;14.60;99.90;;;;;;5072807;28;20375;-65
2022/10/20 09:01:16;;;;;;;;;;;14.50;99.90;;;;;;5090294;28;19924;-65
2022/10/20 09:03:43;;;;;;;;;;;14.50;99.90;;;;;;5096322;28;19924;-65
2022/10/20 09:06:14;;;;;;;;;;;14.50;99.90;;;;;;5105798;28;19935;-64
2022/10/20 09:08:41;;;;;;;;;;;14.50;99.90;;;;;;5101865;28;19977;-65
2022/10/20 09:11:09;;;;;;;;;;;14.50;99.90;;;;;;5089923;28;19934;-64
2022/10/20 09:13:36;;;;;;;;;;;14.40;99.90;;;;;;5089049;28;20014;-65
2022/10/20 09:16:05;;;;;;;;;;;14.40;99.90;;;;;;5089808;28;19923;-65
2022/10/20 09:18:32;;;;;;;;;;;14.40;99.90;;;;;;5088417;28;19928;-65
2022/10/20 09:21:00;;;;;;;;;;;14.50;99.90;;;;;;5090091;28;19928;-65
2022/10/20 09:23:31;;;;;;;;;;;14.50;99.90;;;;;;5085291;28;19973;-67
2022/10/20 09:25:57;;;;;;;;;;;14.40;99.90;;;;;;5091105;28;20022;-66
2022/10/20 09:28:25;;;;;;;;;;;14.40;99.90;;;;;;5079527;28;20015;-66
2022/10/20 09:30:52;;;;;;;;;;;14.40;99.90;;;;;;5091652;28;19931;-67
2022/10/20 09:33:21;;;;;;;;;;;14.40;99.90;;;;;;5092229;28;20365;-66
2022/10/20 09:35:48;;;;;;;;;;;14.40;99.90;;;;;;5092020;28;19927;-67
2022/10/20 09:38:17;;;;;;;;;;;14.40;99.90;;;;;;5094268;28;19924;-66
2022/10/20 09:40:46;;;;;;;;;;;14.40;99.90;;;;;;5085355;28;19924;-66
2022/10/20 09:43:15;;;;;;;;;;;14.50;99.90;;;;;;5097593;28;20006;-66
2022/10/20 09:45:49;;;;;;;;;;;14.50;99.90;;;;;;5090937;28;19924;-65
2022/10/20 09:48:18;;;;;;;;;;;14.50;99.90;;;;;;5095097;28;19951;-67
2022/10/20 09:50:46;;;;;;;;;;;14.60;99.90;;;;;;5085808;28;19924;-66
2022/10/20 09:53:17;;;;;;;;;;;14.70;99.90;;;;;;5090036;28;20290;-66
2022/10/20 09:55:48;;;;;;;;;;;14.80;99.90;;;;;;5102932;28;19947;-66
2022/10/20 09:58:17;;;;;;;;;;;14.90;99.90;;;;;;5091909;28;19971;-66
2022/10/20 10:00:45;;;;;;;;;;;15.00;99.90;;;;;;5088913;28;19954;-66
2022/10/20 10:03:20;;;;;;;;;;;15.00;99.90;;;;;;5099491;28;19928;-66
2022/10/20 10:05:48;;;;;;;;;;;15.00;99.90;;;;;;5088466;28;20300;-66
2022/10/20 10:08:15;;;;;;;;;;;15.00;99.90;;;;;;5100441;28;19924;-66
2022/10/20 10:10:43;;;;;;;;;;;15.00;99.90;;;;;;5080697;28;19934;-66
2022/10/20 10:13:21;;;;;;;;;;;15.20;99.90;;;;;;5092042;28;19931;-67
2022/10/20 10:15:47;;;;;;;;;;;15.20;99.90;;;;;;5092723;28;19924;-66
2022/10/20 10:18:19;;;;;;;;;;;15.20;99.90;;;;;;5094501;28;20310;-66
2022/10/20 10:20:45;;;;;;;;;;;15.20;99.90;;;;;;5104067;28;19924;-66
2022/10/20 10:23:18;;;;;;;;;;;15.30;99.90;;;;;;5100853;28;19924;-67
2022/10/20 10:25:45;;;;;;;;;;;15.60;99.90;;;;;;5101837;28;19923;-67
2022/10/20 10:28:22;;;;;;;;;;;15.70;99.90;;;;;;5095064;28;19924;-67
2022/10/20 10:30:50;;;;;;;;;;;15.70;99.90;;;;;;5089510;28;19924;-68
2022/10/20 10:33:23;;;;;;;;;;;15.60;99.90;;;;;;5112816;28;20301;-67
2022/10/20 10:35:50;;;;;;;;;;;15.60;99.90;;;;;;5096200;28;19928;-68
2022/10/20 10:38:17;;;;;;;;;;;15.60;99.90;;;;;;5092898;28;19928;-67
2022/10/20 10:40:49;;;;;;;;;;;15.60;99.90;;;;;;5092639;28;19924;-68
2022/10/20 10:43:28;;;;;;;;;;;15.60;99.90;;;;;;5094199;28;20454;-67
2022/10/20 10:45:56;;;;;;;;;;;15.60;99.90;;;;;;5097364;28;19969;-68
2022/10/20 10:48:44;;;;;;;;;;;15.70;99.90;;;;;;5098129;28;20011;-67
2022/10/20 10:51:15;;;;;;;;;;;15.80;99.90;;;;;;5087983;28;19977;-67
2022/10/20 10:53:47;;;;;;;;;;;15.90;99.90;;;;;;5094104;28;19935;-67
2022/10/20 10:56:15;;;;;;;;;;;16.10;99.90;;;;;;5094575;28;20001;-67
2022/10/20 10:58:46;;;;;;;;;;;16.20;99.90;;;;;;5102418;28;20306;-67
2022/10/20 11:01:21;;;;;;;;;;;16.30;99.90;;;;;;5093056;28;20392;-67
2022/10/20 11:03:51;;;;;;;;;;;16.40;99.90;;;;;;5092148;28;19930;-67
2022/10/20 11:06:21;;;;;;;;;;;16.60;99.90;;;;;;5093854;28;19928;-67
2022/10/20 11:08:54;;;;;;;;;;;16.70;99.90;;;;;;5091840;28;19928;-67
2022/10/20 11:11:26;;;;;;;;;;;16.80;99.90;;;;;;5086006;28;19924;-67
2022/10/20 11:13:58;;;;;;;;;;;16.80;99.90;;;;;;5089223;28;19925;-68
2022/10/20 11:16:31;;;;;;;;;;;17.00;99.90;;;;;;5093587;28;19932;-67
2022/10/20 11:19:06;;;;;;;;;;;17.10;99.90;;;;;;5090929;28;20389;-67
2022/10/20 11:21:37;;;;;;;;;;;17.20;99.90;;;;;;5089450;28;20295;-67
2022/10/20 11:24:08;;;;;;;;;;;17.40;99.90;;;;;;5090958;28;19924;-68
2022/10/20 11:26:35;;;;;;;;;;;17.60;99.90;;;;;;5089414;28;20015;-69
2022/10/20 11:29:05;;;;;;;;;;;17.80;99.90;;;;;;5087274;28;19930;-67
2022/10/20 11:31:34;;;;;;;;;;;17.90;99.90;;;;;;5081722;28;19924;-67
2022/10/20 11:34:05;;;;;;;;;;;18.00;99.90;;;;;;5092997;28;19934;-68
2022/10/20 11:36:33;;;;;;;;;;;18.10;99.90;;;;;;5090924;28;20402;-68
2022/10/20 11:39:02;;;;;;;;;;;18.10;99.90;;;;;;5084827;28;19971;-68
2022/10/20 11:41:32;;;;;;;;;;;18.30;99.90;;;;;;5093046;28;19931;-68
2022/10/20 11:44:02;;;;;;;;;;;18.20;99.90;;;;;;5080518;28;19928;-68
2022/10/20 11:46:33;;;;;;;;;;;18.20;99.90;;;;;;5083315;28;19925;-68
2022/10/20 11:49:00;;;;;;;;;;;18.20;99.90;;;;;;5077608;28;19924;-68
2022/10/20 11:51:45;;;;;;;;;;;18.30;99.90;;;;;;5085353;28;19974;-68
2022/10/20 11:54:18;;;;;;;;;;;18.50;99.90;;;;;;5092469;28;20003;-68
2022/10/20 11:56:53;;;;;;;;;;;18.50;99.90;;;;;;5089063;28;20303;-68
2022/10/20 11:59:33;;;;;;;;;;;18.50;99.90;;;;;;5092085;28;19930;-68
2022/10/20 12:02:14;;;;;;;;;;;18.50;99.90;;;;;;5092486;28;20098;-67
2022/10/20 12:04:52;;;;;;;;;;;18.50;99.90;;;;;;5092458;28;20019;-68
2022/10/20 12:07:35;;;;;;;;;;;18.40;99.90;;;;;;5090877;28;19970;-68
2022/10/20 12:10:16;;;;;;;;;;;18.30;99.90;;;;;;5083929;28;19928;-68
2022/10/20 12:12:50;;;;;;;;;;;18.40;99.90;;;;;;5090423;28;19931;-68
2022/10/20 12:15:21;;;;;;;;;;;18.50;99.90;;;;;;5092192;28;20322;-67
2022/10/20 12:17:50;;;;;;;;;;;18.60;99.90;;;;;;5091227;28;19977;-69
2022/10/20 12:20:36;;;;;;;;;;;18.80;99.90;;;;;;5089224;28;20387;-68
2022/10/20 12:23:02;;;;;;;;;;;18.90;99.90;;;;;;5089083;28;20052;-69
2022/10/20 12:25:40;;;;;;;;;;;18.80;99.90;;;;;;5086714;28;19924;-66
2022/10/20 12:28:26;;;;;;;;;;;18.80;99.90;;;;;;5088017;28;19924;-68
2022/10/20 12:31:05;;;;;;;;;;;19.00;99.90;;;;;;5081471;28;20342;-68
2022/10/20 12:33:37;;;;;;;;;;;19.10;99.90;;;;;;5080033;28;19924;-68
2022/10/20 12:36:14;;;;;;;;;;;19.30;99.90;;;;;;5081850;28;20307;-68
2022/10/20 12:38:41;;;;;;;;;;;19.30;99.90;;;;;;5088121;28;19924;-68
2022/10/20 12:41:08;;;;;;;;;;;19.40;99.90;;;;;;5092326;28;19924;-68
2022/10/20 12:43:50;;;;;;;;;;;19.30;99.90;;;;;;5090301;28;19924;-69
2022/10/20 12:46:20;;;;;;;;;;;19.50;99.90;;;;;;5090545;28;20317;-68
2022/10/20 12:48:55;;;;;;;;;;;19.50;99.90;;;;;;5090961;28;19924;-68
2022/10/20 12:51:24;;;;;;;;;;;19.60;99.90;;;;;;5076180;28;19932;-68
2022/10/20 12:53:53;;;;;;;;;;;19.60;99.90;;;;;;5078570;28;20010;-67
2022/10/20 12:56:21;;;;;;;;;;;19.60;99.90;;;;;;5101274;28;19993;-67
2022/10/20 12:59:06;;;;;;;;;;;19.60;99.90;;;;;;5093585;28;19924;-68
2022/10/20 13:01:53;;;;;;;;;;;19.60;99.90;;;;;;5105577;28;20019;-67
2022/10/20 13:04:38;;;;;;;;;;;19.70;99.90;;;;;;5092927;28;20018;-68
2022/10/20 13:07:08;;;;;;;;;;;19.90;99.90;;;;;;5097299;28;20387;-66
2022/10/20 13:09:53;;;;;;;;;;;20.00;99.90;;;;;;5088547;28;20031;-68
2022/10/20 13:12:25;;;;;;;;;;;20.00;99.90;;;;;;5092049;28;19966;-67
2022/10/20 13:14:55;;;;;;;;;;;19.90;99.90;;;;;;5091492;28;19990;-67
2022/10/20 13:17:39;;;;;;;;;;;19.90;99.90;;;;;;5104915;28;20022;-67
2022/10/20 13:20:16;;;;;;;;;;;20.10;99.90;;;;;;5091519;28;20022;-67
2022/10/20 13:22:46;;;;;;;;;;;20.50;99.90;;;;;;5093534;28;19924;-67
2022/10/20 13:25:16;;;;;;;;;;;20.60;99.90;;;;;;5090750;28;19935;-67
2022/10/20 13:27:43;;;;;;;;;;;20.50;99.90;;;;;;5090222;28;19928;-67
2022/10/20 13:30:10;;;;;;;;;;;20.40;99.90;;;;;;5088410;28;20000;-66
2022/10/20 13:32:41;;;;;;;;;;;20.50;99.90;;;;;;5085919;28;20409;-68
2022/10/20 13:35:11;;;;;;;;;;;20.40;99.90;;;;;;5082311;28;19930;-67
2022/10/20 13:37:51;;;;;;;;;;;20.10;99.90;;;;;;5097747;28;20286;-67
2022/10/20 13:40:22;;;;;;;;;;;20.10;99.90;;;;;;5086001;28;19928;-67
2022/10/20 13:42:55;;;;;;;;;;;20.10;99.90;;;;;;5092505;28;19928;-67
2022/10/20 13:45:27;;;;;;;;;;;20.10;99.90;;;;;;5097501;28;19924;-67
2022/10/20 13:48:00;;;;;;;;;;;19.90;99.90;;;;;;5086094;28;20023;-67
2022/10/20 13:50:27;;;;;;;;;;;20.00;99.90;;;;;;5096401;28;20011;-66
2022/10/20 13:52:56;;;;;;;;;;;20.00;99.90;;;;;;5104808;28;19951;-67
2022/10/20 13:55:25;;;;;;;;;;;20.00;99.90;;;;;;5108050;28;19946;-67
2022/10/20 13:57:53;;;;;;;;;;;20.00;99.90;;;;;;5105355;28;21443;-67
2022/10/20 14:00:21;;;;;;;;;;;20.10;99.90;;;;;;5092311;28;20317;-68
2022/10/20 14:02:52;;;;;;;;;;;20.10;99.90;;;;;;5087587;28;20007;-68
2022/10/20 14:05:21;;;;;;;;;;;20.20;99.90;;;;;;5076628;28;19936;-69
2022/10/20 14:07:49;;;;;;;;;;;20.30;99.90;;;;;;5086276;28;19977;-68
2022/10/20 14:10:29;;;;;;;;;;;20.30;99.90;;;;;;5089819;28;19981;-67
2022/10/20 14:12:56;;;;;;;;;;;20.30;99.90;;;;;;5084400;28;20020;-67
2022/10/20 14:15:30;;;;;;;;;;;20.30;99.90;;;;;;5081086;28;19931;-69
2022/10/20 14:17:58;;;;;;;;;;;20.20;99.90;;;;;;5105296;28;20001;-70
2022/10/20 14:20:25;;;;;;;;;;;20.10;99.90;;;;;;5084391;28;19924;-70
2022/10/20 14:22:53;;;;;;;;;;;20.10;99.90;;;;;;5081291;28;20399;-70
2022/10/20 14:25:21;;;;;;;;;;;20.10;99.90;;;;;;5081219;28;20003;-71
2022/10/20 14:27:52;;;;;;;;;;;20.00;99.90;;;;;;5072429;28;19963;-71